sensor_id;sensor_type;location;lat;lon;timestamp;temperature;humidity
64652;HTU21D;51062;45.120;37.660;2023-03-05T00:01:21;8.30;68.03
64652;HTU21D;51062;45.120;37.660;2023-03-05T00:03:49;8.27;68.16
64652;HTU21D;51062;45.120;37.660;2023-03-05T00:06:18;8.24;68.23
64652;HTU21D;51062;45.120;37.660;2023-03-05T00:08:44;8.22;68.13
64652;HTU21D;51062;45.120;37.660;2023-03-05T00:11:11;8.18;68.36
64652;HTU21D;51062;45.120;37.660;2023-03-05T00:13:37;8.18;68.32
64652;HTU21D;51062;45.120;37.660;2023-03-05T00:16:09;8.16;68.39
64652;HTU21D;51062;45.120;37.660;2023-03-05T00:18:36;8.17;68.41
64652;HTU21D;51062;45.120;37.660;2023-03-05T00:21:03;8.18;68.41
64652;HTU21D;51062;45.120;37.660;2023-03-05T00:23:29;8.18;68.43
64652;HTU21D;51062;45.120;37.660;2023-03-05T00:25:55;8.21;68.51
64652;HTU21D;51062;45.120;37.660;2023-03-05T00:28:21;8.23;68.42
64652;HTU21D;51062;45.120;37.660;2023-03-05T00:30:47;8.27;68.42
64652;HTU21D;51062;45.120;37.660;2023-03-05T00:33:13;8.29;68.42
64652;HTU21D;51062;45.120;37.660;2023-03-05T00:35:41;8.30;68.42
64652;HTU21D;51062;45.120;37.660;2023-03-05T00:38:09;8.32;68.46
64652;HTU21D;51062;45.120;37.660;2023-03-05T00:40:37;8.35;68.47
64652;HTU21D;51062;45.120;37.660;2023-03-05T00:43:03;8.38;68.49
64652;HTU21D;51062;45.120;37.660;2023-03-05T00:45:30;8.43;68.58
64652;HTU21D;51062;45.120;37.660;2023-03-05T00:47:56;8.49;68.62
64652;HTU21D;51062;45.120;37.660;2023-03-05T00:50:23;8.52;68.49
64652;HTU21D;51062;45.120;37.660;2023-03-05T00:52:49;8.50;68.46
64652;HTU21D;51062;45.120;37.660;2023-03-05T00:55:15;8.47;68.44
64652;HTU21D;51062;45.120;37.660;2023-03-05T00:57:41;8.44;68.51
64652;HTU21D;51062;45.120;37.660;2023-03-05T01:00:08;8.39;68.60
64652;HTU21D;51062;45.120;37.660;2023-03-05T01:02:34;8.38;68.65
64652;HTU21D;51062;45.120;37.660;2023-03-05T01:05:00;8.37;68.67
64652;HTU21D;51062;45.120;37.660;2023-03-05T01:07:26;8.37;68.71
64652;HTU21D;51062;45.120;37.660;2023-03-05T01:09:52;8.34;68.71
64652;HTU21D;51062;45.120;37.660;2023-03-05T01:12:18;8.32;68.71
64652;HTU21D;51062;45.120;37.660;2023-03-05T01:14:44;8.29;68.76
64652;HTU21D;51062;45.120;37.660;2023-03-05T01:17:10;8.27;68.79
64652;HTU21D;51062;45.120;37.660;2023-03-05T01:19:37;8.26;68.81
64652;HTU21D;51062;45.120;37.660;2023-03-05T01:22:03;8.24;68.87
64652;HTU21D;51062;45.120;37.660;2023-03-05T01:24:30;8.26;68.88
64652;HTU21D;51062;45.120;37.660;2023-03-05T01:26:56;8.27;68.92
64652;HTU21D;51062;45.120;37.660;2023-03-05T01:29:23;8.30;68.99
64652;HTU21D;51062;45.120;37.660;2023-03-05T01:31:49;8.36;69.07
64652;HTU21D;51062;45.120;37.660;2023-03-05T01:34:15;8.44;69.10
64652;HTU21D;51062;45.120;37.660;2023-03-05T01:36:43;8.52;69.05
64652;HTU21D;51062;45.120;37.660;2023-03-05T01:39:09;8.57;69.07
64652;HTU21D;51062;45.120;37.660;2023-03-05T01:41:35;8.60;69.05
64652;HTU21D;51062;45.120;37.660;2023-03-05T01:44:01;8.60;69.07
64652;HTU21D;51062;45.120;37.660;2023-03-05T01:46:31;8.61;69.12
64652;HTU21D;51062;45.120;37.660;2023-03-05T01:51:28;8.60;69.27
64652;HTU21D;51062;45.120;37.660;2023-03-05T01:53:55;8.61;69.28
64652;HTU21D;51062;45.120;37.660;2023-03-05T01:56:23;8.62;69.36
64652;HTU21D;51062;45.120;37.660;2023-03-05T01:58:51;8.61;69.39
64652;HTU21D;51062;45.120;37.660;2023-03-05T02:01:18;8.59;69.43
64652;HTU21D;51062;45.120;37.660;2023-03-05T02:03:45;8.60;69.47
64652;HTU21D;51062;45.120;37.660;2023-03-05T02:06:12;8.61;69.52
64652;HTU21D;51062;45.120;37.660;2023-03-05T02:08:38;8.62;69.52
64652;HTU21D;51062;45.120;37.660;2023-03-05T02:11:05;8.64;69.51
64652;HTU21D;51062;45.120;37.660;2023-03-05T02:13:33;8.66;69.61
64652;HTU21D;51062;45.120;37.660;2023-03-05T02:16:03;8.71;69.64
64652;HTU21D;51062;45.120;37.660;2023-03-05T02:18:29;8.73;69.61
64652;HTU21D;51062;45.120;37.660;2023-03-05T02:23:25;8.79;69.60
64652;HTU21D;51062;45.120;37.660;2023-03-05T02:25:52;8.82;69.61
64652;HTU21D;51062;45.120;37.660;2023-03-05T02:28:23;8.85;69.61
64652;HTU21D;51062;45.120;37.660;2023-03-05T02:30:51;8.86;69.58
64652;HTU21D;51062;45.120;37.660;2023-03-05T02:33:18;8.87;69.61
64652;HTU21D;51062;45.120;37.660;2023-03-05T02:35:44;8.88;69.64
64652;HTU21D;51062;45.120;37.660;2023-03-05T02:38:13;8.87;69.68
64652;HTU21D;51062;45.120;37.660;2023-03-05T02:40:40;8.89;69.70
64652;HTU21D;51062;45.120;37.660;2023-03-05T02:43:06;8.88;69.72
64652;HTU21D;51062;45.120;37.660;2023-03-05T02:45:33;8.87;69.76
64652;HTU21D;51062;45.120;37.660;2023-03-05T02:47:59;8.86;69.82
64652;HTU21D;51062;45.120;37.660;2023-03-05T02:50:26;8.86;69.87
64652;HTU21D;51062;45.120;37.660;2023-03-05T02:52:52;8.87;69.86
64652;HTU21D;51062;45.120;37.660;2023-03-05T02:55:20;8.89;69.85
64652;HTU21D;51062;45.120;37.660;2023-03-05T02:57:46;8.90;69.85
64652;HTU21D;51062;45.120;37.660;2023-03-05T03:00:12;8.91;69.86
64652;HTU21D;51062;45.120;37.660;2023-03-05T03:02:38;8.93;69.89
64652;HTU21D;51062;45.120;37.660;2023-03-05T03:05:05;8.93;69.89
64652;HTU21D;51062;45.120;37.660;2023-03-05T03:07:31;8.95;69.87
64652;HTU21D;51062;45.120;37.660;2023-03-05T03:09:59;8.95;69.89
64652;HTU21D;51062;45.120;37.660;2023-03-05T03:12:25;8.95;69.88
64652;HTU21D;51062;45.120;37.660;2023-03-05T03:14:51;8.96;69.92
64652;HTU21D;51062;45.120;37.660;2023-03-05T03:17:17;8.96;69.90
64652;HTU21D;51062;45.120;37.660;2023-03-05T03:19:44;8.97;69.92
64652;HTU21D;51062;45.120;37.660;2023-03-05T03:22:13;8.97;69.92
64652;HTU21D;51062;45.120;37.660;2023-03-05T03:24:41;8.96;69.92
64652;HTU21D;51062;45.120;37.660;2023-03-05T03:27:07;8.94;69.94
64652;HTU21D;51062;45.120;37.660;2023-03-05T03:29:33;8.93;69.96
64652;HTU21D;51062;45.120;37.660;2023-03-05T03:32:00;8.92;69.96
64652;HTU21D;51062;45.120;37.660;2023-03-05T03:34:26;8.90;69.99
64652;HTU21D;51062;45.120;37.660;2023-03-05T03:36:52;8.89;70.00
64652;HTU21D;51062;45.120;37.660;2023-03-05T03:39:19;8.88;70.00
64652;HTU21D;51062;45.120;37.660;2023-03-05T03:41:48;8.85;70.03
64652;HTU21D;51062;45.120;37.660;2023-03-05T03:44:15;8.81;70.07
64652;HTU21D;51062;45.120;37.660;2023-03-05T03:46:43;8.80;70.13
64652;HTU21D;51062;45.120;37.660;2023-03-05T03:49:22;8.78;70.20
64652;HTU21D;51062;45.120;37.660;2023-03-05T03:51:49;8.75;70.23
64652;HTU21D;51062;45.120;37.660;2023-03-05T03:54:17;8.72;70.27
64652;HTU21D;51062;45.120;37.660;2023-03-05T03:56:44;8.67;70.35
64652;HTU21D;51062;45.120;37.660;2023-03-05T03:59:10;8.63;70.41
64652;HTU21D;51062;45.120;37.660;2023-03-05T04:01:36;8.62;70.47
64652;HTU21D;51062;45.120;37.660;2023-03-05T04:04:03;8.60;70.52
64652;HTU21D;51062;45.120;37.660;2023-03-05T04:06:30;8.58;70.54
64652;HTU21D;51062;45.120;37.660;2023-03-05T04:08:56;8.58;70.61
64652;HTU21D;51062;45.120;37.660;2023-03-05T04:11:22;8.56;70.65
64652;HTU21D;51062;45.120;37.660;2023-03-05T04:13:49;8.57;70.68
64652;HTU21D;51062;45.120;37.660;2023-03-05T04:16:15;8.57;70.68
64652;HTU21D;51062;45.120;37.660;2023-03-05T04:18:42;8.58;70.69
64652;HTU21D;51062;45.120;37.660;2023-03-05T04:21:08;8.59;70.67
64652;HTU21D;51062;45.120;37.660;2023-03-05T04:23:34;8.61;70.68
64652;HTU21D;51062;45.120;37.660;2023-03-05T04:26:00;8.60;70.71
64652;HTU21D;51062;45.120;37.660;2023-03-05T04:28:27;8.61;70.73
64652;HTU21D;51062;45.120;37.660;2023-03-05T04:30:53;8.61;70.75
64652;HTU21D;51062;45.120;37.660;2023-03-05T04:33:19;8.62;70.77
64652;HTU21D;51062;45.120;37.660;2023-03-05T04:35:46;8.61;70.78
64652;HTU21D;51062;45.120;37.660;2023-03-05T04:38:12;8.62;70.81
64652;HTU21D;51062;45.120;37.660;2023-03-05T04:40:38;8.62;70.84
64652;HTU21D;51062;45.120;37.660;2023-03-05T04:43:05;8.61;70.83
64652;HTU21D;51062;45.120;37.660;2023-03-05T04:45:32;8.62;70.81
64652;HTU21D;51062;45.120;37.660;2023-03-05T04:47:58;8.62;70.84
64652;HTU21D;51062;45.120;37.660;2023-03-05T04:50:24;8.62;70.85
64652;HTU21D;51062;45.120;37.660;2023-03-05T04:52:51;8.63;70.85
64652;HTU21D;51062;45.120;37.660;2023-03-05T04:55:17;8.66;70.85
64652;HTU21D;51062;45.120;37.660;2023-03-05T04:57:44;8.68;70.83
64652;HTU21D;51062;45.120;37.660;2023-03-05T05:00:12;8.72;70.81
64652;HTU21D;51062;45.120;37.660;2023-03-05T05:02:40;8.75;70.77
64652;HTU21D;51062;45.120;37.660;2023-03-05T05:05:08;8.78;70.71
64652;HTU21D;51062;45.120;37.660;2023-03-05T05:07:34;8.79;70.66
64652;HTU21D;51062;45.120;37.660;2023-03-05T05:10:00;8.83;70.64
64652;HTU21D;51062;45.120;37.660;2023-03-05T05:12:29;8.83;70.64
64652;HTU21D;51062;45.120;37.660;2023-03-05T05:14:59;8.85;70.62
64652;HTU21D;51062;45.120;37.660;2023-03-05T05:17:25;8.86;70.60
64652;HTU21D;51062;45.120;37.660;2023-03-05T05:19:52;8.88;70.61
64652;HTU21D;51062;45.120;37.660;2023-03-05T05:22:19;8.89;70.59
64652;HTU21D;51062;45.120;37.660;2023-03-05T05:24:45;8.91;70.54
64652;HTU21D;51062;45.120;37.660;2023-03-05T05:27:11;8.92;70.52
64652;HTU21D;51062;45.120;37.660;2023-03-05T05:29:37;8.91;70.50
64652;HTU21D;51062;45.120;37.660;2023-03-05T05:32:03;8.92;70.52
64652;HTU21D;51062;45.120;37.660;2023-03-05T05:34:30;8.93;70.52
64652;HTU21D;51062;45.120;37.660;2023-03-05T05:36:56;8.94;70.52
64652;HTU21D;51062;45.120;37.660;2023-03-05T05:39:22;8.93;70.52
64652;HTU21D;51062;45.120;37.660;2023-03-05T05:41:52;8.93;70.55
64652;HTU21D;51062;45.120;37.660;2023-03-05T05:44:18;8.93;70.52
64652;HTU21D;51062;45.120;37.660;2023-03-05T05:46:44;8.91;70.57
64652;HTU21D;51062;45.120;37.660;2023-03-05T05:49:10;8.94;70.64
64652;HTU21D;51062;45.120;37.660;2023-03-05T05:51:37;8.96;70.68
64652;HTU21D;51062;45.120;37.660;2023-03-05T05:54:03;9.00;70.67
64652;HTU21D;51062;45.120;37.660;2023-03-05T05:56:29;9.03;70.68
64652;HTU21D;51062;45.120;37.660;2023-03-05T05:58:55;9.08;70.68
64652;HTU21D;51062;45.120;37.660;2023-03-05T06:01:29;9.12;70.63
64652;HTU21D;51062;45.120;37.660;2023-03-05T06:03:56;9.18;70.55
64652;HTU21D;51062;45.120;37.660;2023-03-05T06:06:24;9.20;70.54
64652;HTU21D;51062;45.120;37.660;2023-03-05T06:08:51;9.23;70.53
64652;HTU21D;51062;45.120;37.660;2023-03-05T06:11:18;9.25;70.52
64652;HTU21D;51062;45.120;37.660;2023-03-05T06:13:45;9.27;70.51
64652;HTU21D;51062;45.120;37.660;2023-03-05T06:16:14;9.30;70.55
64652;HTU21D;51062;45.120;37.660;2023-03-05T06:18:41;9.35;70.55
64652;HTU21D;51062;45.120;37.660;2023-03-05T06:21:10;9.39;70.53
64652;HTU21D;51062;45.120;37.660;2023-03-05T06:23:37;9.41;70.52
64652;HTU21D;51062;45.120;37.660;2023-03-05T06:26:05;0.00;70.53
64652;HTU21D;51062;45.120;37.660;2023-03-05T06:28:32;9.48;70.55
64652;HTU21D;51062;45.120;37.660;2023-03-05T06:31:01;9.51;70.58
64652;HTU21D;51062;45.120;37.660;2023-03-05T06:33:27;0.00;70.55
64652;HTU21D;51062;45.120;37.660;2023-03-05T06:35:53;9.63;70.57
64652;HTU21D;51062;45.120;37.660;2023-03-05T06:38:19;9.70;70.57
64652;HTU21D;51062;45.120;37.660;2023-03-05T06:40:45;0.00;0.00
64652;HTU21D;51062;45.120;37.660;2023-03-05T06:43:11;9.96;70.45
64652;HTU21D;51062;45.120;37.660;2023-03-05T06:45:37;0.00;0.00
64652;HTU21D;51062;45.120;37.660;2023-03-05T06:48:04;0.00;0.00
64652;HTU21D;51062;45.120;37.660;2023-03-05T06:50:33;10.29;70.32
64652;HTU21D;51062;45.120;37.660;2023-03-05T06:53:00;10.49;70.22
64652;HTU21D;51062;45.120;37.660;2023-03-05T06:55:26;10.75;70.18
64652;HTU21D;51062;45.120;37.660;2023-03-05T06:57:52;11.00;70.13
64652;HTU21D;51062;45.120;37.660;2023-03-05T07:00:19;11.24;69.82
64652;HTU21D;51062;45.120;37.660;2023-03-05T07:02:45;0.00;0.00
64652;HTU21D;51062;45.120;37.660;2023-03-05T07:05:11;11.26;69.64
64652;HTU21D;51062;45.120;37.660;2023-03-05T07:07:37;0.00;69.74
64652;HTU21D;51062;45.120;37.660;2023-03-05T07:10:04;11.15;69.85
64652;HTU21D;51062;45.120;37.660;2023-03-05T07:12:33;0.00;69.93
64652;HTU21D;51062;45.120;37.660;2023-03-05T07:14:59;11.36;70.16
64652;HTU21D;51062;45.120;37.660;2023-03-05T07:17:26;11.93;70.19
64652;HTU21D;51062;45.120;37.660;2023-03-05T07:19:52;12.47;69.48
64652;HTU21D;51062;45.120;37.660;2023-03-05T07:22:18;12.75;69.06
64652;HTU21D;51062;45.120;37.660;2023-03-05T07:24:44;12.87;68.76
64652;HTU21D;51062;45.120;37.660;2023-03-05T07:27:10;12.99;68.70
64652;HTU21D;51062;45.120;37.660;2023-03-05T07:29:36;12.96;68.55
64652;HTU21D;51062;45.120;37.660;2023-03-05T07:32:04;12.95;68.54
64652;HTU21D;51062;45.120;37.660;2023-03-05T07:34:30;12.80;68.35
64652;HTU21D;51062;45.120;37.660;2023-03-05T07:36:56;12.51;68.49
64652;HTU21D;51062;45.120;37.660;2023-03-05T07:39:22;12.23;68.67
64652;HTU21D;51062;45.120;37.660;2023-03-05T07:41:48;11.98;68.78
64652;HTU21D;51062;45.120;37.660;2023-03-05T07:44:16;11.79;69.07
64652;HTU21D;51062;45.120;37.660;2023-03-05T07:46:43;11.63;69.13
64652;HTU21D;51062;45.120;37.660;2023-03-05T07:49:09;11.51;69.26
64652;HTU21D;51062;45.120;37.660;2023-03-05T07:51:35;11.40;69.32
64652;HTU21D;51062;45.120;37.660;2023-03-05T07:54:01;11.33;69.36
64652;HTU21D;51062;45.120;37.660;2023-03-05T07:56:30;11.26;69.33
64652;HTU21D;51062;45.120;37.660;2023-03-05T07:59:00;11.19;69.36
64652;HTU21D;51062;45.120;37.660;2023-03-05T08:01:28;11.16;69.37
64652;HTU21D;51062;45.120;37.660;2023-03-05T08:03:54;11.12;69.26
64652;HTU21D;51062;45.120;37.660;2023-03-05T08:06:20;11.07;69.29
64652;HTU21D;51062;45.120;37.660;2023-03-05T08:08:47;11.07;69.25
64652;HTU21D;51062;45.120;37.660;2023-03-05T08:11:14;11.07;69.24
64652;HTU21D;51062;45.120;37.660;2023-03-05T08:13:42;11.08;69.13
64652;HTU21D;51062;45.120;37.660;2023-03-05T08:16:12;11.04;69.06
64652;HTU21D;51062;45.120;37.660;2023-03-05T08:18:38;11.03;69.06
64652;HTU21D;51062;45.120;37.660;2023-03-05T08:21:04;11.01;69.08
64652;HTU21D;51062;45.120;37.660;2023-03-05T08:23:31;11.02;69.03
64652;HTU21D;51062;45.120;37.660;2023-03-05T08:25:59;11.02;69.02
64652;HTU21D;51062;45.120;37.660;2023-03-05T08:28:25;11.08;69.06
64652;HTU21D;51062;45.120;37.660;2023-03-05T08:30:51;11.16;69.04
64652;HTU21D;51062;45.120;37.660;2023-03-05T08:33:17;11.29;68.96
64652;HTU21D;51062;45.120;37.660;2023-03-05T08:35:44;11.43;68.87
64652;HTU21D;51062;45.120;37.660;2023-03-05T08:38:10;11.62;68.86
64652;HTU21D;51062;45.120;37.660;2023-03-05T08:40:36;11.77;68.66
64652;HTU21D;51062;45.120;37.660;2023-03-05T08:43:02;11.91;68.56
64652;HTU21D;51062;45.120;37.660;2023-03-05T08:45:30;12.02;68.49
64652;HTU21D;51062;45.120;37.660;2023-03-05T08:47:57;12.20;68.57
64652;HTU21D;51062;45.120;37.660;2023-03-05T08:50:23;12.44;68.35
64652;HTU21D;51062;45.120;37.660;2023-03-05T08:52:50;12.61;68.10
64652;HTU21D;51062;45.120;37.660;2023-03-05T08:55:16;12.78;67.83
64652;HTU21D;51062;45.120;37.660;2023-03-05T08:57:42;12.91;67.70
64652;HTU21D;51062;45.120;37.660;2023-03-05T09:00:10;12.97;67.54
64652;HTU21D;51062;45.120;37.660;2023-03-05T09:02:38;12.95;67.53
64652;HTU21D;51062;45.120;37.660;2023-03-05T09:05:05;12.89;67.55
64652;HTU21D;51062;45.120;37.660;2023-03-05T09:07:31;12.84;67.69
64652;HTU21D;51062;45.120;37.660;2023-03-05T09:09:57;12.85;67.75
64652;HTU21D;51062;45.120;37.660;2023-03-05T09:12:23;12.89;67.81
64652;HTU21D;51062;45.120;37.660;2023-03-05T09:14:53;12.96;67.82
64652;HTU21D;51062;45.120;37.660;2023-03-05T09:17:19;13.07;67.81
64652;HTU21D;51062;45.120;37.660;2023-03-05T09:19:45;13.18;67.73
64652;HTU21D;51062;45.120;37.660;2023-03-05T09:22:11;13.31;67.70
64652;HTU21D;51062;45.120;37.660;2023-03-05T09:24:37;13.48;67.55
64652;HTU21D;51062;45.120;37.660;2023-03-05T09:27:03;13.59;67.37
64652;HTU21D;51062;45.120;37.660;2023-03-05T09:29:29;13.64;67.18
64652;HTU21D;51062;45.120;37.660;2023-03-05T09:31:57;13.62;67.09
64652;HTU21D;51062;45.120;37.660;2023-03-05T09:34:23;13.60;67.17
64652;HTU21D;51062;45.120;37.660;2023-03-05T09:36:49;13.60;67.18
64652;HTU21D;51062;45.120;37.660;2023-03-05T09:39:15;13.62;67.17
64652;HTU21D;51062;45.120;37.660;2023-03-05T09:52:22;13.52;67.10
64652;HTU21D;51062;45.120;37.660;2023-03-05T09:54:55;13.52;67.08
64652;HTU21D;51062;45.120;37.660;2023-03-05T09:57:27;13.58;66.92
64652;HTU21D;51062;45.120;37.660;2023-03-05T10:00:00;13.56;66.76
64652;HTU21D;51062;45.120;37.660;2023-03-05T10:02:34;13.60;66.56
64652;HTU21D;51062;45.120;37.660;2023-03-05T10:05:32;13.55;66.43
64652;HTU21D;51062;45.120;37.660;2023-03-05T10:08:03;13.54;66.32
64652;HTU21D;51062;45.120;37.660;2023-03-05T10:10:40;13.59;66.27
64652;HTU21D;51062;45.120;37.660;2023-03-05T10:13:29;13.63;66.13
64652;HTU21D;51062;45.120;37.660;2023-03-05T10:18:47;13.68;65.90
64652;HTU21D;51062;45.120;37.660;2023-03-05T10:21:33;13.59;65.75
64652;HTU21D;51062;45.120;37.660;2023-03-05T10:40:37;13.50;66.23
64652;HTU21D;51062;45.120;37.660;2023-03-05T10:46:04;13.52;66.07
64652;HTU21D;51062;45.120;37.660;2023-03-05T10:48:52;13.40;66.04
64652;HTU21D;51062;45.120;37.660;2023-03-05T10:51:33;13.25;66.03
64652;HTU21D;51062;45.120;37.660;2023-03-05T10:54:08;13.09;66.14
64652;HTU21D;51062;45.120;37.660;2023-03-05T10:56:37;13.05;66.27
64652;HTU21D;51062;45.120;37.660;2023-03-05T10:59:04;13.05;66.28
64652;HTU21D;51062;45.120;37.660;2023-03-05T11:01:30;13.08;66.31
64652;HTU21D;51062;45.120;37.660;2023-03-05T11:04:24;13.19;66.27
64652;HTU21D;51062;45.120;37.660;2023-03-05T11:06:50;13.22;66.10
64652;HTU21D;51062;45.120;37.660;2023-03-05T11:12:02;13.12;65.82
64652;HTU21D;51062;45.120;37.660;2023-03-05T11:14:31;13.02;65.89
64652;HTU21D;51062;45.120;37.660;2023-03-05T11:17:02;12.99;65.97
64652;HTU21D;51062;45.120;37.660;2023-03-05T11:19:30;12.99;65.94
64652;HTU21D;51062;45.120;37.660;2023-03-05T11:22:22;12.96;65.98
64652;HTU21D;51062;45.120;37.660;2023-03-05T11:27:37;13.01;65.92
64652;HTU21D;51062;45.120;37.660;2023-03-05T11:30:34;12.97;65.90
64652;HTU21D;51062;45.120;37.660;2023-03-05T11:33:14;12.93;65.91
64652;HTU21D;51062;45.120;37.660;2023-03-05T11:36:21;12.92;65.99
64652;HTU21D;51062;45.120;37.660;2023-03-05T11:41:42;12.90;65.93
64652;HTU21D;51062;45.120;37.660;2023-03-05T11:49:46;12.93;65.84
64652;HTU21D;51062;45.120;37.660;2023-03-05T11:52:30;12.90;65.84
64652;HTU21D;51062;45.120;37.660;2023-03-05T11:55:03;12.91;65.84
64652;HTU21D;51062;45.120;37.660;2023-03-05T11:57:38;12.92;65.84
64652;HTU21D;51062;45.120;37.660;2023-03-05T12:00:14;12.93;65.81
64652;HTU21D;51062;45.120;37.660;2023-03-05T12:02:40;12.94;65.78
64652;HTU21D;51062;45.120;37.660;2023-03-05T12:05:12;12.94;65.68
64652;HTU21D;51062;45.120;37.660;2023-03-05T12:07:41;12.95;65.71
64652;HTU21D;51062;45.120;37.660;2023-03-05T12:10:15;13.01;65.79
64652;HTU21D;51062;45.120;37.660;2023-03-05T12:12:56;13.08;65.72
64652;HTU21D;51062;45.120;37.660;2023-03-05T12:18:11;13.19;65.61
64652;HTU21D;51062;45.120;37.660;2023-03-05T12:23:16;13.15;65.39
64652;HTU21D;51062;45.120;37.660;2023-03-05T12:31:04;13.21;65.31
64652;HTU21D;51062;45.120;37.660;2023-03-05T12:33:42;13.22;65.17
64652;HTU21D;51062;45.120;37.660;2023-03-05T12:38:53;13.08;65.10
64652;HTU21D;51062;45.120;37.660;2023-03-05T12:51:53;12.88;65.36
64652;HTU21D;51062;45.120;37.660;2023-03-05T12:54:37;12.89;65.31
64652;HTU21D;51062;45.120;37.660;2023-03-05T12:57:20;12.91;65.31
64652;HTU21D;51062;45.120;37.660;2023-03-05T12:59:52;12.91;65.25
64652;HTU21D;51062;45.120;37.660;2023-03-05T13:02:30;12.92;65.20
64652;HTU21D;51062;45.120;37.660;2023-03-05T13:05:04;12.92;65.11
64652;HTU21D;51062;45.120;37.660;2023-03-05T13:07:32;12.89;65.07
64652;HTU21D;51062;45.120;37.660;2023-03-05T13:09:58;12.82;65.01
64652;HTU21D;51062;45.120;37.660;2023-03-05T13:12:26;12.77;65.10
64652;HTU21D;51062;45.120;37.660;2023-03-05T13:14:57;12.75;65.21
64652;HTU21D;51062;45.120;37.660;2023-03-05T13:17:40;12.74;65.21
64652;HTU21D;51062;45.120;37.660;2023-03-05T13:20:40;12.73;65.25
64652;HTU21D;51062;45.120;37.660;2023-03-05T13:25:42;12.75;65.11
64652;HTU21D;51062;45.120;37.660;2023-03-05T13:28:12;12.71;65.02
64652;HTU21D;51062;45.120;37.660;2023-03-05T13:30:38;12.63;65.08
64652;HTU21D;51062;45.120;37.660;2023-03-05T13:33:16;12.58;65.09
64652;HTU21D;51062;45.120;37.660;2023-03-05T13:35:46;12.50;65.16
64652;HTU21D;51062;45.120;37.660;2023-03-05T13:38:44;12.45;65.27
64652;HTU21D;51062;45.120;37.660;2023-03-05T13:43:47;12.37;65.30
64652;HTU21D;51062;45.120;37.660;2023-03-05T13:48:53;12.38;65.42
64652;HTU21D;51062;45.120;37.660;2023-03-05T13:51:20;12.43;65.29
64652;HTU21D;51062;45.120;37.660;2023-03-05T13:53:48;12.40;65.20
64652;HTU21D;51062;45.120;37.660;2023-03-05T13:56:19;12.38;65.14
64652;HTU21D;51062;45.120;37.660;2023-03-05T13:58:55;12.31;65.14
64652;HTU21D;51062;45.120;37.660;2023-03-05T14:03:52;12.15;65.37
64652;HTU21D;51062;45.120;37.660;2023-03-05T14:06:21;12.12;65.50
64652;HTU21D;51062;45.120;37.660;2023-03-05T14:08:54;12.10;65.47
64652;HTU21D;51062;45.120;37.660;2023-03-05T14:11:22;12.03;65.40
64652;HTU21D;51062;45.120;37.660;2023-03-05T14:13:59;11.94;65.46
64652;HTU21D;51062;45.120;37.660;2023-03-05T14:16:27;11.85;65.54
64652;HTU21D;51062;45.120;37.660;2023-03-05T14:19:00;11.77;65.66
64652;HTU21D;51062;45.120;37.660;2023-03-05T14:21:47;11.72;65.73
64652;HTU21D;51062;45.120;37.660;2023-03-05T14:24:21;11.67;65.79
64652;HTU21D;51062;45.120;37.660;2023-03-05T14:27:04;11.63;65.79
64652;HTU21D;51062;45.120;37.660;2023-03-05T14:29:33;11.58;65.77
64652;HTU21D;51062;45.120;37.660;2023-03-05T14:32:16;11.53;65.79
64652;HTU21D;51062;45.120;37.660;2023-03-05T14:34:48;11.45;65.87
64652;HTU21D;51062;45.120;37.660;2023-03-05T14:37:23;11.41;65.93
64652;HTU21D;51062;45.120;37.660;2023-03-05T14:39:52;11.38;65.95
64652;HTU21D;51062;45.120;37.660;2023-03-05T14:44:48;11.30;65.95
64652;HTU21D;51062;45.120;37.660;2023-03-05T14:47:14;11.27;65.98
64652;HTU21D;51062;45.120;37.660;2023-03-05T14:49:40;11.22;66.01
64652;HTU21D;51062;45.120;37.660;2023-03-05T14:52:12;11.17;66.01
64652;HTU21D;51062;45.120;37.660;2023-03-05T14:54:39;11.13;66.04
64652;HTU21D;51062;45.120;37.660;2023-03-05T14:57:05;11.10;66.05
64652;HTU21D;51062;45.120;37.660;2023-03-05T14:59:31;11.04;66.09
64652;HTU21D;51062;45.120;37.660;2023-03-05T15:01:57;10.99;66.07
64652;HTU21D;51062;45.120;37.660;2023-03-05T15:04:23;10.94;66.07
64652;HTU21D;51062;45.120;37.660;2023-03-05T15:06:49;10.86;66.07
64652;HTU21D;51062;45.120;37.660;2023-03-05T15:09:18;10.80;66.13
64652;HTU21D;51062;45.120;37.660;2023-03-05T15:11:50;10.72;66.16
64652;HTU21D;51062;45.120;37.660;2023-03-05T15:14:16;10.66;66.21
64652;HTU21D;51062;45.120;37.660;2023-03-05T15:16:43;10.59;66.24
64652;HTU21D;51062;45.120;37.660;2023-03-05T15:19:11;10.52;66.27
64652;HTU21D;51062;45.120;37.660;2023-03-05T15:21:37;10.45;66.33
64652;HTU21D;51062;45.120;37.660;2023-03-05T15:24:04;10.37;66.40
64652;HTU21D;51062;45.120;37.660;2023-03-05T15:26:30;10.33;66.42
64652;HTU21D;51062;45.120;37.660;2023-03-05T15:28:56;10.26;66.48
64652;HTU21D;51062;45.120;37.660;2023-03-05T15:31:22;10.21;66.49
64652;HTU21D;51062;45.120;37.660;2023-03-05T15:33:49;10.18;66.53
64652;HTU21D;51062;45.120;37.660;2023-03-05T15:36:15;10.12;66.59
64652;HTU21D;51062;45.120;37.660;2023-03-05T15:38:42;10.08;66.63
64652;HTU21D;51062;45.120;37.660;2023-03-05T15:41:08;10.05;66.66
64652;HTU21D;51062;45.120;37.660;2023-03-05T15:43:35;10.00;66.70
64652;HTU21D;51062;45.120;37.660;2023-03-05T15:46:04;9.98;66.72
64652;HTU21D;51062;45.120;37.660;2023-03-05T15:48:31;9.94;66.77
64652;HTU21D;51062;45.120;37.660;2023-03-05T15:50:57;9.92;66.81
64652;HTU21D;51062;45.120;37.660;2023-03-05T15:53:23;9.92;66.85
64652;HTU21D;51062;45.120;37.660;2023-03-05T15:55:49;9.89;66.85
64652;HTU21D;51062;45.120;37.660;2023-03-05T15:58:16;9.86;66.89
64652;HTU21D;51062;45.120;37.660;2023-03-05T16:00:42;9.83;66.94
64652;HTU21D;51062;45.120;37.660;2023-03-05T16:03:10;9.82;66.95
64652;HTU21D;51062;45.120;37.660;2023-03-05T16:05:36;9.78;66.98
64652;HTU21D;51062;45.120;37.660;2023-03-05T16:08:03;9.77;67.00
64652;HTU21D;51062;45.120;37.660;2023-03-05T16:10:29;9.76;67.04
64652;HTU21D;51062;45.120;37.660;2023-03-05T16:13:02;9.74;67.09
64652;HTU21D;51062;45.120;37.660;2023-03-05T16:15:30;9.74;67.07
64652;HTU21D;51062;45.120;37.660;2023-03-05T16:17:58;9.74;67.10
64652;HTU21D;51062;45.120;37.660;2023-03-05T16:20:26;9.72;67.13
64652;HTU21D;51062;45.120;37.660;2023-03-05T16:22:52;9.71;67.16
64652;HTU21D;51062;45.120;37.660;2023-03-05T16:25:18;9.71;67.20
64652;HTU21D;51062;45.120;37.660;2023-03-05T16:27:46;9.70;67.21
64652;HTU21D;51062;45.120;37.660;2023-03-05T16:30:16;9.68;67.23
64652;HTU21D;51062;45.120;37.660;2023-03-05T16:32:42;9.65;67.20
64652;HTU21D;51062;45.120;37.660;2023-03-05T16:35:09;9.61;67.16
64652;HTU21D;51062;45.120;37.660;2023-03-05T16:37:37;9.54;67.18
64652;HTU21D;51062;45.120;37.660;2023-03-05T16:40:04;9.50;67.19
64652;HTU21D;51062;45.120;37.660;2023-03-05T16:42:30;9.45;67.20
64652;HTU21D;51062;45.120;37.660;2023-03-05T16:44:56;9.38;67.27
64652;HTU21D;51062;45.120;37.660;2023-03-05T16:47:26;9.34;67.31